sensor_id;sensor_type;location;lat;lon;timestamp;P1;durP1;ratioP1;P2;durP2;ratioP2
70487;SDS011;57976;48.174;16.370;2023-07-20T00:01:35;8.90;;;3.20;;
70487;SDS011;57976;48.174;16.370;2023-07-20T00:03:40;8.50;;;3.50;;
70487;SDS011;57976;48.174;16.370;2023-07-20T00:05:45;6.60;;;3.20;;
70487;SDS011;57976;48.174;16.370;2023-07-20T00:07:50;8.00;;;3.90;;
70487;SDS011;57976;48.174;16.370;2023-07-20T00:09:54;8.00;;;3.90;;
70487;SDS011;57976;48.174;16.370;2023-07-20T00:11:59;7.10;;;3.30;;
70487;SDS011;57976;48.174;16.370;2023-07-20T00:14:04;6.90;;;3.50;;
70487;SDS011;57976;48.174;16.370;2023-07-20T00:16:09;7.30;;;3.20;;
70487;SDS011;57976;48.174;16.370;2023-07-20T00:18:14;7.70;;;3.30;;
70487;SDS011;57976;48.174;16.370;2023-07-20T00:20:23;6.40;;;3.10;;
70487;SDS011;57976;48.174;16.370;2023-07-20T00:22:28;6.80;;;3.40;;
70487;SDS011;57976;48.174;16.370;2023-07-20T00:24:33;7.30;;;3.40;;
70487;SDS011;57976;48.174;16.370;2023-07-20T00:26:39;7.20;;;3.20;;
70487;SDS011;57976;48.174;16.370;2023-07-20T00:28:50;6.60;;;3.40;;
70487;SDS011;57976;48.174;16.370;2023-07-20T00:30:54;7.70;;;3.40;;
70487;SDS011;57976;48.174;16.370;2023-07-20T00:32:59;7.10;;;3.50;;
70487;SDS011;57976;48.174;16.370;2023-07-20T00:35:04;7.50;;;3.40;;
70487;SDS011;57976;48.174;16.370;2023-07-20T00:37:10;7.30;;;3.40;;
70487;SDS011;57976;48.174;16.370;2023-07-20T00:39:14;7.70;;;3.50;;
70487;SDS011;57976;48.174;16.370;2023-07-20T00:41:19;6.70;;;3.60;;
70487;SDS011;57976;48.174;16.370;2023-07-20T00:43:24;7.30;;;3.40;;
70487;SDS011;57976;48.174;16.370;2023-07-20T00:45:29;7.00;;;3.50;;
70487;SDS011;57976;48.174;16.370;2023-07-20T00:47:38;7.10;;;3.50;;
70487;SDS011;57976;48.174;16.370;2023-07-20T00:49:45;7.10;;;3.60;;
70487;SDS011;57976;48.174;16.370;2023-07-20T00:51:50;7.70;;;3.50;;
70487;SDS011;57976;48.174;16.370;2023-07-20T00:53:55;7.60;;;3.50;;
70487;SDS011;57976;48.174;16.370;2023-07-20T00:56:00;7.90;;;3.50;;
70487;SDS011;57976;48.174;16.370;2023-07-20T00:58:05;7.90;;;3.70;;
70487;SDS011;57976;48.174;16.370;2023-07-20T01:00:11;7.50;;;3.60;;
70487;SDS011;57976;48.174;16.370;2023-07-20T01:02:17;7.60;;;3.60;;
70487;SDS011;57976;48.174;16.370;2023-07-20T01:04:21;9.00;;;3.90;;
70487;SDS011;57976;48.174;16.370;2023-07-20T01:06:31;9.30;;;3.80;;
70487;SDS011;57976;48.174;16.370;2023-07-20T01:08:45;6.80;;;3.50;;
70487;SDS011;57976;48.174;16.370;2023-07-20T01:11:00;7.00;;;3.50;;
70487;SDS011;57976;48.174;16.370;2023-07-20T01:13:19;7.20;;;3.80;;
70487;SDS011;57976;48.174;16.370;2023-07-20T01:15:25;8.10;;;3.70;;
70487;SDS011;57976;48.174;16.370;2023-07-20T01:17:29;7.20;;;3.40;;
70487;SDS011;57976;48.174;16.370;2023-07-20T01:19:35;6.70;;;3.40;;
70487;SDS011;57976;48.174;16.370;2023-07-20T01:21:41;7.60;;;3.60;;
70487;SDS011;57976;48.174;16.370;2023-07-20T01:26:26;8.30;;;3.70;;
70487;SDS011;57976;48.174;16.370;2023-07-20T01:28:52;7.30;;;3.40;;
70487;SDS011;57976;48.174;16.370;2023-07-20T01:31:16;8.00;;;3.30;;
70487;SDS011;57976;48.174;16.370;2023-07-20T01:33:24;9.10;;;3.80;;
70487;SDS011;57976;48.174;16.370;2023-07-20T01:35:31;7.00;;;3.40;;
70487;SDS011;57976;48.174;16.370;2023-07-20T01:37:37;7.00;;;3.80;;
70487;SDS011;57976;48.174;16.370;2023-07-20T01:39:43;7.30;;;3.70;;
70487;SDS011;57976;48.174;16.370;2023-07-20T01:41:49;8.30;;;3.40;;
70487;SDS011;57976;48.174;16.370;2023-07-20T01:43:54;7.60;;;3.60;;
70487;SDS011;57976;48.174;16.370;2023-07-20T01:46:02;7.90;;;3.40;;
70487;SDS011;57976;48.174;16.370;2023-07-20T01:48:07;8.70;;;3.80;;
70487;SDS011;57976;48.174;16.370;2023-07-20T01:50:12;8.00;;;3.40;;
70487;SDS011;57976;48.174;16.370;2023-07-20T01:52:16;7.70;;;3.70;;
70487;SDS011;57976;48.174;16.370;2023-07-20T01:54:21;8.90;;;3.50;;
70487;SDS011;57976;48.174;16.370;2023-07-20T01:56:26;7.60;;;3.60;;
70487;SDS011;57976;48.174;16.370;2023-07-20T01:58:31;6.50;;;3.20;;
70487;SDS011;57976;48.174;16.370;2023-07-20T02:00:37;7.20;;;3.40;;
70487;SDS011;57976;48.174;16.370;2023-07-20T02:02:42;7.80;;;3.40;;
70487;SDS011;57976;48.174;16.370;2023-07-20T02:04:47;8.30;;;3.80;;
70487;SDS011;57976;48.174;16.370;2023-07-20T02:06:52;8.80;;;3.20;;
70487;SDS011;57976;48.174;16.370;2023-07-20T02:08:57;6.90;;;3.50;;
70487;SDS011;57976;48.174;16.370;2023-07-20T02:11:05;7.30;;;3.60;;
70487;SDS011;57976;48.174;16.370;2023-07-20T02:13:10;7.90;;;3.60;;
70487;SDS011;57976;48.174;16.370;2023-07-20T02:15:15;7.90;;;3.50;;
70487;SDS011;57976;48.174;16.370;2023-07-20T02:17:20;6.50;;;3.40;;
70487;SDS011;57976;48.174;16.370;2023-07-20T02:19:25;7.70;;;3.60;;
70487;SDS011;57976;48.174;16.370;2023-07-20T02:21:30;8.70;;;3.90;;
70487;SDS011;57976;48.174;16.370;2023-07-20T02:23:35;6.90;;;3.60;;
70487;SDS011;57976;48.174;16.370;2023-07-20T02:25:40;8.10;;;3.70;;
70487;SDS011;57976;48.174;16.370;2023-07-20T02:27:47;7.20;;;3.90;;
70487;SDS011;57976;48.174;16.370;2023-07-20T02:29:52;7.40;;;3.80;;
70487;SDS011;57976;48.174;16.370;2023-07-20T02:31:57;6.40;;;3.50;;
70487;SDS011;57976;48.174;16.370;2023-07-20T02:34:02;8.50;;;3.70;;
70487;SDS011;57976;48.174;16.370;2023-07-20T02:36:11;7.30;;;3.60;;
70487;SDS011;57976;48.174;16.370;2023-07-20T02:38:16;7.60;;;3.80;;
70487;SDS011;57976;48.174;16.370;2023-07-20T02:40:21;7.40;;;3.60;;
70487;SDS011;57976;48.174;16.370;2023-07-20T02:42:26;7.70;;;3.50;;
70487;SDS011;57976;48.174;16.370;2023-07-20T02:44:31;8.00;;;3.40;;
70487;SDS011;57976;48.174;16.370;2023-07-20T02:46:36;9.70;;;3.80;;
70487;SDS011;57976;48.174;16.370;2023-07-20T02:48:40;8.40;;;3.80;;
70487;SDS011;57976;48.174;16.370;2023-07-20T02:50:48;7.50;;;3.70;;
70487;SDS011;57976;48.174;16.370;2023-07-20T02:52:53;8.70;;;3.90;;
70487;SDS011;57976;48.174;16.370;2023-07-20T02:54:58;7.20;;;3.60;;
70487;SDS011;57976;48.174;16.370;2023-07-20T02:57:02;8.00;;;3.70;;
70487;SDS011;57976;48.174;16.370;2023-07-20T02:59:08;7.50;;;3.50;;
70487;SDS011;57976;48.174;16.370;2023-07-20T03:01:13;6.50;;;3.40;;
70487;SDS011;57976;48.174;16.370;2023-07-20T03:03:17;7.00;;;3.50;;
70487;SDS011;57976;48.174;16.370;2023-07-20T03:05:23;8.50;;;3.80;;
70487;SDS011;57976;48.174;16.370;2023-07-20T03:07:28;7.90;;;3.60;;
70487;SDS011;57976;48.174;16.370;2023-07-20T03:09:33;8.20;;;3.70;;
70487;SDS011;57976;48.174;16.370;2023-07-20T03:11:38;7.30;;;3.70;;
70487;SDS011;57976;48.174;16.370;2023-07-20T03:13:42;8.40;;;3.20;;
70487;SDS011;57976;48.174;16.370;2023-07-20T03:15:49;7.50;;;3.90;;
70487;SDS011;57976;48.174;16.370;2023-07-20T03:17:58;7.20;;;3.20;;
70487;SDS011;57976;48.174;16.370;2023-07-20T03:20:04;6.90;;;3.20;;
70487;SDS011;57976;48.174;16.370;2023-07-20T03:22:10;6.70;;;3.10;;
70487;SDS011;57976;48.174;16.370;2023-07-20T03:24:15;5.90;;;2.80;;
70487;SDS011;57976;48.174;16.370;2023-07-20T03:26:22;7.90;;;3.50;;
70487;SDS011;57976;48.174;16.370;2023-07-20T03:28:27;7.10;;;3.50;;
70487;SDS011;57976;48.174;16.370;2023-07-20T03:30:32;6.90;;;3.10;;
70487;SDS011;57976;48.174;16.370;2023-07-20T03:32:38;5.90;;;3.00;;
70487;SDS011;57976;48.174;16.370;2023-07-20T03:34:43;6.80;;;3.10;;
70487;SDS011;57976;48.174;16.370;2023-07-20T03:36:49;7.20;;;3.30;;
70487;SDS011;57976;48.174;16.370;2023-07-20T03:38:54;6.30;;;3.00;;
70487;SDS011;57976;48.174;16.370;2023-07-20T03:40:59;7.80;;;2.90;;
70487;SDS011;57976;48.174;16.370;2023-07-20T03:43:04;6.50;;;2.90;;
70487;SDS011;57976;48.174;16.370;2023-07-20T03:45:09;7.20;;;3.50;;
70487;SDS011;57976;48.174;16.370;2023-07-20T03:47:14;6.50;;;3.10;;
70487;SDS011;57976;48.174;16.370;2023-07-20T03:49:19;6.90;;;3.20;;
70487;SDS011;57976;48.174;16.370;2023-07-20T03:51:24;6.50;;;3.20;;
70487;SDS011;57976;48.174;16.370;2023-07-20T03:53:29;7.00;;;3.30;;
70487;SDS011;57976;48.174;16.370;2023-07-20T03:55:34;6.70;;;3.20;;
70487;SDS011;57976;48.174;16.370;2023-07-20T03:57:39;6.50;;;3.00;;
70487;SDS011;57976;48.174;16.370;2023-07-20T03:59:45;6.30;;;3.30;;
70487;SDS011;57976;48.174;16.370;2023-07-20T04:01:51;9.00;;;3.60;;
70487;SDS011;57976;48.174;16.370;2023-07-20T04:03:56;6.40;;;3.20;;
70487;SDS011;57976;48.174;16.370;2023-07-20T04:06:00;6.40;;;3.20;;
70487;SDS011;57976;48.174;16.370;2023-07-20T04:08:05;6.80;;;3.00;;
70487;SDS011;57976;48.174;16.370;2023-07-20T04:10:11;7.00;;;3.40;;
70487;SDS011;57976;48.174;16.370;2023-07-20T04:12:15;7.00;;;3.40;;
70487;SDS011;57976;48.174;16.370;2023-07-20T04:14:20;6.90;;;3.00;;
70487;SDS011;57976;48.174;16.370;2023-07-20T04:16:25;6.40;;;3.10;;
70487;SDS011;57976;48.174;16.370;2023-07-20T04:18:30;7.30;;;3.30;;
70487;SDS011;57976;48.174;16.370;2023-07-20T04:20:35;7.80;;;3.60;;
70487;SDS011;57976;48.174;16.370;2023-07-20T04:22:39;8.00;;;3.30;;
70487;SDS011;57976;48.174;16.370;2023-07-20T04:24:49;8.50;;;3.60;;
70487;SDS011;57976;48.174;16.370;2023-07-20T04:26:54;6.70;;;3.10;;
70487;SDS011;57976;48.174;16.370;2023-07-20T04:28:59;6.20;;;3.20;;
70487;SDS011;57976;48.174;16.370;2023-07-20T04:31:13;7.60;;;3.80;;
70487;SDS011;57976;48.174;16.370;2023-07-20T04:33:19;8.60;;;3.40;;
70487;SDS011;57976;48.174;16.370;2023-07-20T04:37:55;7.50;;;3.50;;
70487;SDS011;57976;48.174;16.370;2023-07-20T04:40:02;7.40;;;3.70;;
70487;SDS011;57976;48.174;16.370;2023-07-20T04:42:08;7.70;;;3.40;;
70487;SDS011;57976;48.174;16.370;2023-07-20T04:44:13;6.60;;;3.30;;
70487;SDS011;57976;48.174;16.370;2023-07-20T04:46:19;7.60;;;3.60;;
70487;SDS011;57976;48.174;16.370;2023-07-20T04:48:25;8.20;;;3.60;;
70487;SDS011;57976;48.174;16.370;2023-07-20T04:50:30;7.70;;;3.40;;
70487;SDS011;57976;48.174;16.370;2023-07-20T04:52:36;6.80;;;3.40;;
70487;SDS011;57976;48.174;16.370;2023-07-20T04:54:47;7.40;;;3.60;;
70487;SDS011;57976;48.174;16.370;2023-07-20T04:56:52;7.80;;;3.50;;
70487;SDS011;57976;48.174;16.370;2023-07-20T04:58:58;7.70;;;3.90;;
70487;SDS011;57976;48.174;16.370;2023-07-20T05:01:03;7.50;;;3.50;;
70487;SDS011;57976;48.174;16.370;2023-07-20T05:03:10;7.00;;;3.50;;
70487;SDS011;57976;48.174;16.370;2023-07-20T05:05:15;6.50;;;3.30;;
70487;SDS011;57976;48.174;16.370;2023-07-20T05:07:20;7.50;;;3.40;;
70487;SDS011;57976;48.174;16.370;2023-07-20T05:09:25;6.70;;;3.40;;
70487;SDS011;57976;48.174;16.370;2023-07-20T05:11:30;7.40;;;3.50;;
70487;SDS011;57976;48.174;16.370;2023-07-20T05:13:35;7.50;;;3.50;;
70487;SDS011;57976;48.174;16.370;2023-07-20T05:15:41;7.80;;;3.40;;
70487;SDS011;57976;48.174;16.370;2023-07-20T05:17:49;6.90;;;3.60;;
70487;SDS011;57976;48.174;16.370;2023-07-20T05:19:54;7.20;;;3.60;;
70487;SDS011;57976;48.174;16.370;2023-07-20T05:21:58;7.50;;;3.30;;
70487;SDS011;57976;48.174;16.370;2023-07-20T05:24:03;7.70;;;3.60;;
70487;SDS011;57976;48.174;16.370;2023-07-20T05:26:09;8.50;;;3.60;;
70487;SDS011;57976;48.174;16.370;2023-07-20T05:28:14;7.10;;;3.40;;
70487;SDS011;57976;48.174;16.370;2023-07-20T05:30:22;7.50;;;3.60;;
70487;SDS011;57976;48.174;16.370;2023-07-20T05:32:26;6.60;;;3.20;;
70487;SDS011;57976;48.174;16.370;2023-07-20T05:34:34;9.00;;;3.40;;
70487;SDS011;57976;48.174;16.370;2023-07-20T05:36:39;7.00;;;3.50;;
70487;SDS011;57976;48.174;16.370;2023-07-20T05:38:44;8.10;;;3.60;;
70487;SDS011;57976;48.174;16.370;2023-07-20T05:40:48;7.00;;;3.50;;
70487;SDS011;57976;48.174;16.370;2023-07-20T05:42:53;7.20;;;3.40;;
70487;SDS011;57976;48.174;16.370;2023-07-20T05:44:58;7.40;;;3.60;;
70487;SDS011;57976;48.174;16.370;2023-07-20T05:47:03;8.90;;;3.60;;
70487;SDS011;57976;48.174;16.370;2023-07-20T05:49:08;6.90;;;3.50;;
70487;SDS011;57976;48.174;16.370;2023-07-20T05:51:14;7.30;;;3.30;;
70487;SDS011;57976;48.174;16.370;2023-07-20T05:53:19;7.70;;;4.00;;
70487;SDS011;57976;48.174;16.370;2023-07-20T05:55:26;7.00;;;3.40;;
70487;SDS011;57976;48.174;16.370;2023-07-20T05:57:31;7.70;;;3.40;;
70487;SDS011;57976;48.174;16.370;2023-07-20T05:59:35;6.70;;;3.10;;
70487;SDS011;57976;48.174;16.370;2023-07-20T06:01:40;7.40;;;3.30;;
70487;SDS011;57976;48.174;16.370;2023-07-20T06:03:46;7.50;;;3.80;;
70487;SDS011;57976;48.174;16.370;2023-07-20T06:05:50;7.90;;;3.40;;
70487;SDS011;57976;48.174;16.370;2023-07-20T06:08:00;7.70;;;3.30;;
70487;SDS011;57976;48.174;16.370;2023-07-20T06:10:06;7.10;;;3.50;;
70487;SDS011;57976;48.174;16.370;2023-07-20T06:12:11;8.20;;;3.30;;
70487;SDS011;57976;48.174;16.370;2023-07-20T06:14:16;7.40;;;3.50;;
70487;SDS011;57976;48.174;16.370;2023-07-20T06:16:20;7.00;;;3.10;;
70487;SDS011;57976;48.174;16.370;2023-07-20T06:18:25;8.20;;;4.00;;
70487;SDS011;57976;48.174;16.370;2023-07-20T06:20:31;6.30;;;3.40;;
70487;SDS011;57976;48.174;16.370;2023-07-20T06:22:35;9.00;;;3.60;;
70487;SDS011;57976;48.174;16.370;2023-07-20T06:24:40;7.70;;;3.70;;
70487;SDS011;57976;48.174;16.370;2023-07-20T06:26:45;7.40;;;3.40;;
70487;SDS011;57976;48.174;16.370;2023-07-20T06:28:50;7.50;;;3.30;;
70487;SDS011;57976;48.174;16.370;2023-07-20T06:30:59;8.20;;;3.40;;
70487;SDS011;57976;48.174;16.370;2023-07-20T06:33:04;6.80;;;3.20;;
70487;SDS011;57976;48.174;16.370;2023-07-20T06:35:09;7.40;;;3.40;;
70487;SDS011;57976;48.174;16.370;2023-07-20T06:37:14;7.10;;;3.40;;
70487;SDS011;57976;48.174;16.370;2023-07-20T06:39:19;7.10;;;3.40;;
70487;SDS011;57976;48.174;16.370;2023-07-20T06:41:27;6.80;;;3.20;;
70487;SDS011;57976;48.174;16.370;2023-07-20T06:43:35;8.10;;;3.30;;
70487;SDS011;57976;48.174;16.370;2023-07-20T06:45:43;7.80;;;3.10;;
70487;SDS011;57976;48.174;16.370;2023-07-20T06:47:56;8.20;;;3.30;;
70487;SDS011;57976;48.174;16.370;2023-07-20T06:50:01;5.90;;;3.20;;
70487;SDS011;57976;48.174;16.370;2023-07-20T06:52:07;6.70;;;3.10;;
70487;SDS011;57976;48.174;16.370;2023-07-20T06:54:12;6.40;;;3.20;;
70487;SDS011;57976;48.174;16.370;2023-07-20T06:56:17;6.10;;;3.30;;
70487;SDS011;57976;48.174;16.370;2023-07-20T06:58:26;7.40;;;3.40;;
70487;SDS011;57976;48.174;16.370;2023-07-20T07:00:31;7.40;;;3.30;;
70487;SDS011;57976;48.174;16.370;2023-07-20T07:02:36;6.60;;;3.10;;
70487;SDS011;57976;48.174;16.370;2023-07-20T07:04:42;6.90;;;3.10;;
70487;SDS011;57976;48.174;16.370;2023-07-20T07:06:47;6.90;;;3.20;;
70487;SDS011;57976;48.174;16.370;2023-07-20T07:08:54;6.90;;;3.30;;
70487;SDS011;57976;48.174;16.370;2023-07-20T07:10:59;7.50;;;3.50;;
70487;SDS011;57976;48.174;16.370;2023-07-20T07:13:04;6.20;;;3.10;;
70487;SDS011;57976;48.174;16.370;2023-07-20T07:15:10;6.00;;;3.20;;
70487;SDS011;57976;48.174;16.370;2023-07-20T07:17:14;7.10;;;3.40;;
70487;SDS011;57976;48.174;16.370;2023-07-20T07:19:22;7.70;;;3.50;;
70487;SDS011;57976;48.174;16.370;2023-07-20T07:21:27;8.60;;;3.80;;
70487;SDS011;57976;48.174;16.370;2023-07-20T07:23:39;7.00;;;3.50;;
70487;SDS011;57976;48.174;16.370;2023-07-20T07:25:44;7.20;;;3.60;;
70487;SDS011;57976;48.174;16.370;2023-07-20T07:27:49;7.00;;;3.50;;
70487;SDS011;57976;48.174;16.370;2023-07-20T07:29:56;7.00;;;3.50;;
70487;SDS011;57976;48.174;16.370;2023-07-20T07:32:01;7.50;;;3.20;;
70487;SDS011;57976;48.174;16.370;2023-07-20T07:34:07;8.10;;;3.50;;
70487;SDS011;57976;48.174;16.370;2023-07-20T07:36:12;6.30;;;3.70;;
70487;SDS011;57976;48.174;16.370;2023-07-20T07:38:16;7.40;;;3.70;;
70487;SDS011;57976;48.174;16.370;2023-07-20T07:40:26;7.50;;;3.60;;
70487;SDS011;57976;48.174;16.370;2023-07-20T07:42:31;7.30;;;3.60;;
70487;SDS011;57976;48.174;16.370;2023-07-20T07:44:36;7.10;;;3.80;;
70487;SDS011;57976;48.174;16.370;2023-07-20T07:46:41;8.00;;;3.60;;
70487;SDS011;57976;48.174;16.370;2023-07-20T07:48:46;7.50;;;3.80;;
70487;SDS011;57976;48.174;16.370;2023-07-20T07:50:51;7.80;;;3.80;;
70487;SDS011;57976;48.174;16.370;2023-07-20T07:52:56;9.20;;;3.80;;
70487;SDS011;57976;48.174;16.370;2023-07-20T07:55:01;7.40;;;3.60;;
70487;SDS011;57976;48.174;16.370;2023-07-20T07:57:07;8.20;;;3.80;;
70487;SDS011;57976;48.174;16.370;2023-07-20T07:59:12;8.30;;;4.20;;
70487;SDS011;57976;48.174;16.370;2023-07-20T08:01:16;8.70;;;3.80;;
70487;SDS011;57976;48.174;16.370;2023-07-20T08:03:24;7.80;;;3.80;;
70487;SDS011;57976;48.174;16.370;2023-07-20T08:05:29;7.40;;;3.80;;
70487;SDS011;57976;48.174;16.370;2023-07-20T08:07:34;7.40;;;3.70;;
70487;SDS011;57976;48.174;16.370;2023-07-20T08:09:39;7.80;;;3.90;;
70487;SDS011;57976;48.174;16.370;2023-07-20T08:11:49;7.30;;;4.30;;
70487;SDS011;57976;48.174;16.370;2023-07-20T08:13:54;8.60;;;4.20;;
70487;SDS011;57976;48.174;16.370;2023-07-20T08:16:00;6.80;;;3.90;;
70487;SDS011;57976;48.174;16.370;2023-07-20T08:18:05;8.10;;;3.80;;
70487;SDS011;57976;48.174;16.370;2023-07-20T08:20:12;7.50;;;3.70;;
70487;SDS011;57976;48.174;16.370;2023-07-20T08:22:18;7.30;;;3.70;;
70487;SDS011;57976;48.174;16.370;2023-07-20T08:24:22;8.10;;;3.80;;
70487;SDS011;57976;48.174;16.370;2023-07-20T08:26:27;9.20;;;4.00;;
70487;SDS011;57976;48.174;16.370;2023-07-20T08:28:35;6.80;;;3.90;;
70487;SDS011;57976;48.174;16.370;2023-07-20T08:30:41;8.00;;;4.20;;
70487;SDS011;57976;48.174;16.370;2023-07-20T08:32:46;7.00;;;3.80;;
70487;SDS011;57976;48.174;16.370;2023-07-20T08:34:52;7.50;;;3.60;;
70487;SDS011;57976;48.174;16.370;2023-07-20T08:36:57;7.20;;;3.70;;
70487;SDS011;57976;48.174;16.370;2023-07-20T08:39:02;7.10;;;3.70;;
70487;SDS011;57976;48.174;16.370;2023-07-20T08:41:08;6.90;;;3.70;;
70487;SDS011;57976;48.174;16.370;2023-07-20T08:43:14;7.60;;;3.70;;
70487;SDS011;57976;48.174;16.370;2023-07-20T08:45:20;7.90;;;3.70;;
70487;SDS011;57976;48.174;16.370;2023-07-20T08:47:28;7.50;;;3.60;;
70487;SDS011;57976;48.174;16.370;2023-07-20T08:49:34;6.70;;;3.50;;
70487;SDS011;57976;48.174;16.370;2023-07-20T08:51:39;8.20;;;3.60;;
70487;SDS011;57976;48.174;16.370;2023-07-20T08:53:45;8.10;;;3.50;;
70487;SDS011;57976;48.174;16.370;2023-07-20T08:55:53;7.20;;;3.60;;
70487;SDS011;57976;48.174;16.370;2023-07-20T08:58:03;7.40;;;3.50;;
70487;SDS011;57976;48.174;16.370;2023-07-20T09:00:12;7.00;;;3.50;;
70487;SDS011;57976;48.174;16.370;2023-07-20T09:02:21;10.30;;;3.50;;
70487;SDS011;57976;48.174;16.370;2023-07-20T09:04:31;6.30;;;3.60;;
70487;SDS011;57976;48.174;16.370;2023-07-20T09:06:36;7.10;;;3.90;;
70487;SDS011;57976;48.174;16.370;2023-07-20T09:08:42;7.70;;;3.50;;
70487;SDS011;57976;48.174;16.370;2023-07-20T09:10:48;6.60;;;3.20;;
70487;SDS011;57976;48.174;16.370;2023-07-20T09:12:53;7.50;;;3.80;;
70487;SDS011;57976;48.174;16.370;2023-07-20T09:14:58;7.70;;;3.60;;
70487;SDS011;57976;48.174;16.370;2023-07-20T09:17:04;7.00;;;3.90;;
70487;SDS011;57976;48.174;16.370;2023-07-20T09:19:09;6.90;;;3.30;;
70487;SDS011;57976;48.174;16.370;2023-07-20T09:21:14;13.50;;;3.70;;
70487;SDS011;57976;48.174;16.370;2023-07-20T09:23:21;9.20;;;3.50;;
70487;SDS011;57976;48.174;16.370;2023-07-20T09:25:34;6.90;;;3.70;;
70487;SDS011;57976;48.174;16.370;2023-07-20T09:27:41;6.80;;;3.40;;
70487;SDS011;57976;48.174;16.370;2023-07-20T09:29:50;8.10;;;3.70;;
70487;SDS011;57976;48.174;16.370;2023-07-20T09:32:02;8.50;;;3.50;;
70487;SDS011;57976;48.174;16.370;2023-07-20T09:34:09;9.20;;;3.50;;
70487;SDS011;57976;48.174;16.370;2023-07-20T09:36:36;6.70;;;2.90;;
70487;SDS011;57976;48.174;16.370;2023-07-20T09:38:44;5.70;;;2.90;;
70487;SDS011;57976;48.174;16.370;2023-07-20T09:40:53;7.90;;;2.90;;
70487;SDS011;57976;48.174;16.370;2023-07-20T09:43:01;7.60;;;2.90;;
70487;SDS011;57976;48.174;16.370;2023-07-20T09:45:13;6.90;;;2.90;;
70487;SDS011;57976;48.174;16.370;2023-07-20T09:47:22;5.50;;;2.90;;
70487;SDS011;57976;48.174;16.370;2023-07-20T09:49:31;7.40;;;2.90;;
70487;SDS011;57976;48.174;16.370;2023-07-20T09:51:56;5.90;;;2.90;;
70487;SDS011;57976;48.174;16.370;2023-07-20T09:54:02;7.40;;;2.90;;
70487;SDS011;57976;48.174;16.370;2023-07-20T09:56:08;7.00;;;2.80;;
70487;SDS011;57976;48.174;16.370;2023-07-20T09:58:14;6.80;;;3.20;;
70487;SDS011;57976;48.174;16.370;2023-07-20T10:00:22;6.40;;;3.00;;
70487;SDS011;57976;48.174;16.370;2023-07-20T10:02:30;7.70;;;3.20;;
70487;SDS011;57976;48.174;16.370;2023-07-20T10:04:39;7.00;;;3.30;;
70487;SDS011;57976;48.174;16.370;2023-07-20T10:06:46;6.70;;;2.90;;
70487;SDS011;57976;48.174;16.370;2023-07-20T10:08:53;6.20;;;3.00;;
70487;SDS011;57976;48.174;16.370;2023-07-20T10:11:03;6.00;;;3.10;;
70487;SDS011;57976;48.174;16.370;2023-07-20T10:13:11;6.60;;;3.10;;
70487;SDS011;57976;48.174;16.370;2023-07-20T10:15:23;7.20;;;3.20;;
70487;SDS011;57976;48.174;16.370;2023-07-20T10:17:40;5.60;;;3.00;;
70487;SDS011;57976;48.174;16.370;2023-07-20T10:19:57;6.20;;;3.10;;
70487;SDS011;57976;48.174;16.370;2023-07-20T10:22:07;6.10;;;3.10;;
70487;SDS011;57976;48.174;16.370;2023-07-20T10:24:18;6.80;;;3.20;;
70487;SDS011;57976;48.174;16.370;2023-07-20T10:26:23;8.90;;;3.10;;
70487;SDS011;57976;48.174;16.370;2023-07-20T10:28:30;7.90;;;2.90;;
70487;SDS011;57976;48.174;16.370;2023-07-20T10:30:35;6.80;;;2.80;;
70487;SDS011;57976;48.174;16.370;2023-07-20T10:32:41;5.70;;;2.90;;
70487;SDS011;57976;48.174;16.370;2023-07-20T10:34:54;5.40;;;2.80;;
70487;SDS011;57976;48.174;16.370;2023-07-20T10:37:00;5.90;;;2.80;;
70487;SDS011;57976;48.174;16.370;2023-07-20T10:39:05;7.00;;;2.90;;
70487;SDS011;57976;48.174;16.370;2023-07-20T10:41:28;6.60;;;2.80;;
70487;SDS011;57976;48.174;16.370;2023-07-20T10:43:37;5.80;;;2.60;;
70487;SDS011;57976;48.174;16.370;2023-07-20T10:45:49;6.30;;;3.00;;
70487;SDS011;57976;48.174;16.370;2023-07-20T10:47:55;6.20;;;2.90;;
70487;SDS011;57976;48.174;16.370;2023-07-20T10:50:01;6.70;;;3.00;;
70487;SDS011;57976;48.174;16.370;2023-07-20T10:52:08;7.30;;;3.20;;
70487;SDS011;57976;48.174;16.370;2023-07-20T10:56:38;6.40;;;3.00;;
70487;SDS011;57976;48.174;16.370;2023-07-20T10:58:45;6.00;;;2.70;;
70487;SDS011;57976;48.174;16.370;2023-07-20T11:01:02;7.00;;;2.70;;
70487;SDS011;57976;48.174;16.370;2023-07-20T11:03:09;7.30;;;3.00;;
70487;SDS011;57976;48.174;16.370;2023-07-20T11:05:36;6.20;;;2.80;;
70487;SDS011;57976;48.174;16.370;2023-07-20T11:07:44;6.50;;;2.70;;
70487;SDS011;57976;48.174;16.370;2023-07-20T11:09:49;6.40;;;2.80;;
70487;SDS011;57976;48.174;16.370;2023-07-20T11:12:09;6.40;;;2.60;;
70487;SDS011;57976;48.174;16.370;2023-07-20T11:14:23;5.90;;;2.80;;
70487;SDS011;57976;48.174;16.370;2023-07-20T11:16:35;6.30;;;2.90;;
70487;SDS011;57976;48.174;16.370;2023-07-20T11:18:47;6.30;;;2.70;;
70487;SDS011;57976;48.174;16.370;2023-07-20T11:20:52;5.90;;;2.70;;
70487;SDS011;57976;48.174;16.370;2023-07-20T11:22:58;6.20;;;2.50;;
70487;SDS011;57976;48.174;16.370;2023-07-20T11:25:03;7.00;;;2.70;;
70487;SDS011;57976;48.174;16.370;2023-07-20T11:27:13;6.90;;;2.50;;
70487;SDS011;57976;48.174;16.370;2023-07-20T11:29:18;5.80;;;2.40;;
70487;SDS011;57976;48.174;16.370;2023-07-20T11:31:36;5.40;;;2.40;;
70487;SDS011;57976;48.174;16.370;2023-07-20T11:33:41;5.40;;;2.30;;
70487;SDS011;57976;48.174;16.370;2023-07-20T11:35:48;6.10;;;2.40;;
70487;SDS011;57976;48.174;16.370;2023-07-20T11:37:53;6.30;;;2.70;;
70487;SDS011;57976;48.174;16.370;2023-07-20T11:39:59;6.20;;;2.60;;
70487;SDS011;57976;48.174;16.370;2023-07-20T11:42:05;5.90;;;2.40;;
70487;SDS011;57976;48.174;16.370;2023-07-20T11:44:11;6.70;;;2.60;;
70487;SDS011;57976;48.174;16.370;2023-07-20T11:46:17;5.80;;;2.50;;
70487;SDS011;57976;48.174;16.370;2023-07-20T11:48:22;6.90;;;2.30;;
70487;SDS011;57976;48.174;16.370;2023-07-20T11:50:27;6.50;;;2.50;;
70487;SDS011;57976;48.174;16.370;2023-07-20T11:52:36;6.30;;;2.30;;
70487;SDS011;57976;48.174;16.370;2023-07-20T11:54:41;5.60;;;2.50;;
70487;SDS011;57976;48.174;16.370;2023-07-20T11:56:54;5.50;;;2.50;;
70487;SDS011;57976;48.174;16.370;2023-07-20T11:58:59;7.20;;;2.60;;
70487;SDS011;57976;48.174;16.370;2023-07-20T12:01:04;5.80;;;2.50;;
70487;SDS011;57976;48.174;16.370;2023-07-20T12:03:10;5.00;;;2.30;;
70487;SDS011;57976;48.174;16.370;2023-07-20T12:05:15;6.00;;;2.10;;
70487;SDS011;57976;48.174;16.370;2023-07-20T12:07:20;5.80;;;2.50;;
70487;SDS011;57976;48.174;16.370;2023-07-20T12:09:26;6.50;;;2.40;;
70487;SDS011;57976;48.174;16.370;2023-07-20T12:11:51;6.50;;;2.20;;
70487;SDS011;57976;48.174;16.370;2023-07-20T12:13:57;5.80;;;2.30;;
70487;SDS011;57976;48.174;16.370;2023-07-20T12:16:22;5.40;;;2.10;;
70487;SDS011;57976;48.174;16.370;2023-07-20T12:18:35;5.70;;;2.60;;
70487;SDS011;57976;48.174;16.370;2023-07-20T12:20:40;5.70;;;2.20;;
70487;SDS011;57976;48.174;16.370;2023-07-20T12:22:46;6.70;;;2.20;;
70487;SDS011;57976;48.174;16.370;2023-07-20T12:24:53;6.10;;;1.90;;
70487;SDS011;57976;48.174;16.370;2023-07-20T12:26:58;5.80;;;1.90;;
70487;SDS011;57976;48.174;16.370;2023-07-20T12:29:03;6.20;;;2.10;;
70487;SDS011;57976;48.174;16.370;2023-07-20T12:31:08;6.30;;;1.90;;
70487;SDS011;57976;48.174;16.370;2023-07-20T12:33:14;5.00;;;2.00;;
70487;SDS011;57976;48.174;16.370;2023-07-20T12:35:19;6.00;;;2.10;;
70487;SDS011;57976;48.174;16.370;2023-07-20T12:37:24;7.80;;;2.30;;
70487;SDS011;57976;48.174;16.370;2023-07-20T12:39:29;7.10;;;2.40;;